TAM weather

General Francisco Javier Mina International Airport
Tampico, Tamaulipas, Mexico

Public forecast

Using degrees Celsius for public forecast. Weather courtesy of forecast.io.

Current aviation weather report (METAR) for General Francisco Javier Mina International Airport

Report is more than 2 hours old.

Retrieved 2019/10/19 03:46 UTC (5 hours ago):

MMTM 190346Z E12008KT 7SM SCT070 27/24 A2979 RMK 8/030

Aviation forecast (TAF) for General Francisco Javier Mina International Airport

Retrieved 2019/10/19 06:41 UTC (2 hours ago):

TAF MMTM 190437Z 1906/2006 12008KT P6SM SCT070 FM191000 00000KT 5SM HZ SCT015 SCT070 FM191800 13008KT P6SM SCT020 SCT220 BECMG 2003/2005 12006KT